createdAt,value
2023-06-21T00:02:43.140Z,20.35
2023-06-21T04:32:00.964Z,10.10
2023-06-21T04:47:08.092Z,15.63
2023-06-21T05:00:06.650Z,14.73
2023-06-21T05:03:28.562Z,12.27
2023-06-21T05:10:17.736Z,19.80
2023-06-21T05:12:55.762Z,19.60
2023-06-21T05:16:00.616Z,14.90
2023-06-21T05:25:07.887Z,16.92
2023-06-21T05:27:54.023Z,14.57
2023-06-21T05:36:22.659Z,16.88
2023-06-21T05:39:04.333Z,16.80
2023-06-21T05:45:03.127Z,16.67
2023-06-21T05:48:03.100Z,14.85
2023-06-21T05:50:48.286Z,16.30
2023-06-21T05:53:47.323Z,14.57
2023-06-21T05:56:16.607Z,14.05
2023-06-21T05:58:46.338Z,10.87
2023-06-21T06:01:42.798Z,11.80
2023-06-21T06:04:37.279Z,12.63
2023-06-21T06:07:29.293Z,12.88
2023-06-21T06:10:06.286Z,11.07
2023-06-21T06:12:44.586Z,10.60
2023-06-21T06:15:20.352Z,10.25
2023-06-21T06:18:33.787Z,19.52
2023-06-21T06:21:05.333Z,14.40
2023-06-21T06:23:41.980Z,23.05
2023-06-21T06:26:13.880Z,19.05
2023-06-21T06:29:01.709Z,15.00
2023-06-21T06:31:45.196Z,10.88
2023-06-21T06:34:21.863Z,15.88
2023-06-21T06:37:12.385Z,14.68
2023-06-21T06:59:59.378Z,10.35
2023-06-21T07:22:58.964Z,10.50
2023-06-21T07:33:04.685Z,7.38
2023-06-21T07:35:34.367Z,9.95
2023-06-21T07:38:12.558Z,8.70
2023-06-21T07:40:51.177Z,9.80
2023-06-21T07:43:25.496Z,6.10
2023-06-21T07:46:14.454Z,7.53
2023-06-21T07:48:48.069Z,9.45
2023-06-21T07:51:20.922Z,8.45
2023-06-21T07:53:53.534Z,8.20
2023-06-21T07:56:29.657Z,11.25
2023-06-21T07:59:03.274Z,8.57
2023-06-21T08:01:42.718Z,6.72
2023-06-21T08:04:22.641Z,13.43
2023-06-21T08:06:55.873Z,9.82
2023-06-21T08:09:57.821Z,7.82
2023-06-21T08:12:38.434Z,9.65
2023-06-21T08:15:24.112Z,6.78
2023-06-21T08:18:11.257Z,6.63
2023-06-21T08:20:52.754Z,9.73
2023-06-21T08:23:27.920Z,11.15
2023-06-21T08:25:59.657Z,7.85
2023-06-21T08:28:49.245Z,7.85
2023-06-21T08:31:23.239Z,8.93
2023-06-21T08:34:02.493Z,6.28
2023-06-21T08:36:42.032Z,7.78
2023-06-21T08:39:16.676Z,11.00
2023-06-21T08:41:46.560Z,8.10
2023-06-21T08:44:22.677Z,6.30
2023-06-21T08:47:08.156Z,6.05
2023-06-21T08:49:52.210Z,9.13
2023-06-21T08:52:38.209Z,8.50
2023-06-21T08:55:20.209Z,6.68
2023-06-21T08:58:24.052Z,6.30
2023-06-21T09:01:05.608Z,8.80
2023-06-21T09:04:23.592Z,8.63
2023-06-21T09:06:58.163Z,10.43
2023-06-21T09:12:28.858Z,6.15
2023-06-21T09:15:04.143Z,6.35
2023-06-21T09:20:36.924Z,7.65
2023-06-21T09:23:10.926Z,7.75
2023-06-21T09:25:59.064Z,5.82
2023-06-21T09:28:35.562Z,5.70
2023-06-21T09:31:13.641Z,4.82
2023-06-21T09:33:45.938Z,4.13
2023-06-21T09:36:20.290Z,5.82
2023-06-21T09:39:19.983Z,6.85
2023-06-21T09:41:56.000Z,4.60
2023-06-21T09:44:38.755Z,4.32
2023-06-21T09:47:23.028Z,5.22
2023-06-21T09:49:58.555Z,4.18
2023-06-21T09:52:34.292Z,5.38
2023-06-21T09:55:08.812Z,6.93
2023-06-21T09:57:42.329Z,5.35
2023-06-21T10:00:19.319Z,8.10
2023-06-21T10:03:01.518Z,6.88
2023-06-21T10:05:33.362Z,5.80
2023-06-21T10:08:11.465Z,6.90
2023-06-21T10:10:49.470Z,3.22
2023-06-21T10:13:42.541Z,4.28
2023-06-21T10:16:22.987Z,4.90
2023-06-21T10:19:02.848Z,6.00
2023-06-21T10:21:39.297Z,5.85
2023-06-21T10:24:15.251Z,6.22
2023-06-21T10:29:49.301Z,6.38
2023-06-21T10:32:27.859Z,7.15
2023-06-21T10:38:40.618Z,7.30
2023-06-21T10:41:14.595Z,6.88
2023-06-21T10:43:47.044Z,8.48
2023-06-21T10:46:22.039Z,5.38
2023-06-21T10:48:55.074Z,6.20
2023-06-21T10:51:41.174Z,3.80
2023-06-21T10:54:18.809Z,7.43
2023-06-21T10:56:58.426Z,7.10
2023-06-21T10:59:29.065Z,6.43
2023-06-21T11:02:03.778Z,3.58
2023-06-21T11:05:26.839Z,3.35
2023-06-21T11:08:11.523Z,6.75
2023-06-21T11:10:56.493Z,5.57
2023-06-21T11:13:51.910Z,4.07
2023-06-21T11:16:43.496Z,5.60
2023-06-21T11:19:17.212Z,6.93
2023-06-21T11:21:57.159Z,5.60
2023-06-21T11:24:33.010Z,4.97
2023-06-21T11:27:14.660Z,7.32
2023-06-21T11:29:49.255Z,3.38
2023-06-21T11:32:21.258Z,5.53
2023-06-21T11:35:30.966Z,5.03
2023-06-21T11:38:01.715Z,6.47
2023-06-21T11:40:31.431Z,4.55
2023-06-21T11:43:11.476Z,5.63
2023-06-21T11:45:43.029Z,4.90
2023-06-21T11:48:15.722Z,11.25
2023-06-21T11:50:52.239Z,3.55
2023-06-21T11:53:45.779Z,7.47
2023-06-21T11:56:20.867Z,4.57
2023-06-21T11:58:57.589Z,5.30
2023-06-21T12:04:54.171Z,4.70
2023-06-21T12:07:26.562Z,4.53
2023-06-21T12:10:12.848Z,3.65
2023-06-21T12:12:47.174Z,4.68
2023-06-21T12:15:26.304Z,6.10
2023-06-21T12:18:12.026Z,6.17
2023-06-21T12:20:44.560Z,5.05
2023-06-21T12:23:23.730Z,5.25
2023-06-21T12:26:14.617Z,4.88
2023-06-21T12:29:01.450Z,4.53
2023-06-21T12:31:32.734Z,5.53
2023-06-21T12:34:04.177Z,6.95
2023-06-21T12:36:39.087Z,6.97
2023-06-21T12:39:15.933Z,8.20
2023-06-21T12:41:53.377Z,4.97
2023-06-21T12:44:49.953Z,5.03
2023-06-21T12:47:26.787Z,8.23
2023-06-21T12:50:02.102Z,5.50
2023-06-21T12:52:33.857Z,7.13
2023-06-21T12:55:08.284Z,4.00
2023-06-21T12:57:39.847Z,3.75
2023-06-21T13:00:20.907Z,7.28
2023-06-21T13:02:56.777Z,7.63
2023-06-21T13:05:28.674Z,6.10
2023-06-21T13:08:10.375Z,8.75
2023-06-21T13:11:08.388Z,4.18
2023-06-21T13:13:54.796Z,3.95
2023-06-21T13:17:01.175Z,6.90
2023-06-21T13:19:30.793Z,5.93
2023-06-21T13:22:22.185Z,6.65
2023-06-21T13:25:03.497Z,6.65
2023-06-21T13:27:49.640Z,8.52
2023-06-21T13:33:24.078Z,6.68
2023-06-21T13:36:06.647Z,5.53
2023-06-21T13:38:48.440Z,4.63
2023-06-21T13:41:21.637Z,7.55
2023-06-21T13:43:59.916Z,4.95
2023-06-21T13:46:47.886Z,7.60
2023-06-21T13:49:41.247Z,5.75
2023-06-21T13:52:23.123Z,4.80
2023-06-21T13:55:14.811Z,8.13
2023-06-21T13:57:46.318Z,6.63
2023-06-21T14:00:23.072Z,5.57
2023-06-21T14:02:59.749Z,6.32
2023-06-21T14:05:32.038Z,5.53
2023-06-21T14:08:06.964Z,6.97
2023-06-21T14:10:41.518Z,5.15
2023-06-21T14:13:16.848Z,7.85
2023-06-21T14:15:53.719Z,5.43
2023-06-21T14:18:37.631Z,5.65
2023-06-21T14:21:22.520Z,6.90
2023-06-21T14:23:52.981Z,5.25
2023-06-21T14:26:25.031Z,6.60
2023-06-21T14:28:54.391Z,5.13
2023-06-21T14:31:32.551Z,5.88
2023-06-21T14:34:11.370Z,6.93
2023-06-21T14:36:45.893Z,4.78
2023-06-21T14:39:19.285Z,8.38
2023-06-21T14:41:54.706Z,4.68
2023-06-21T14:44:24.435Z,9.63
2023-06-21T14:46:58.449Z,5.03
2023-06-21T14:49:38.689Z,6.53
2023-06-21T14:52:19.489Z,8.68
2023-06-21T14:54:56.346Z,4.72
2023-06-21T14:57:28.991Z,5.35
2023-06-21T15:00:05.819Z,3.88
2023-06-21T15:02:37.694Z,7.15
2023-06-21T15:05:16.450Z,4.93
2023-06-21T15:07:48.568Z,7.60
2023-06-21T15:10:24.777Z,6.00
2023-06-21T15:13:01.911Z,3.88
2023-06-21T15:15:44.808Z,5.32
2023-06-21T15:18:16.562Z,4.63
2023-06-21T15:20:47.483Z,4.80
2023-06-21T15:23:20.042Z,6.25
2023-06-21T15:25:51.198Z,7.32
2023-06-21T15:31:27.782Z,5.82
2023-06-21T15:34:10.063Z,7.43
2023-06-21T15:36:41.884Z,5.28
2023-06-21T15:39:15.652Z,5.10
2023-06-21T15:41:51.623Z,5.13
2023-06-21T15:44:22.312Z,5.95
2023-06-21T15:46:58.162Z,8.43
2023-06-21T15:49:31.949Z,8.95
2023-06-21T15:52:04.357Z,6.13
2023-06-21T15:54:56.181Z,5.68
2023-06-21T15:57:24.564Z,6.40
2023-06-21T15:59:57.086Z,3.95
2023-06-21T16:02:33.356Z,4.60
2023-06-21T16:05:05.496Z,6.82
2023-06-21T16:07:36.793Z,5.47
2023-06-21T16:10:06.938Z,7.03
2023-06-21T16:12:39.828Z,4.65
2023-06-21T16:15:14.166Z,7.07
2023-06-21T16:17:43.290Z,4.93
2023-06-21T16:20:13.519Z,6.63
2023-06-21T16:22:48.915Z,8.63
2023-06-21T16:25:29.527Z,9.40
2023-06-21T16:28:08.726Z,6.72
2023-06-21T16:30:44.663Z,6.32
2023-06-21T16:33:19.456Z,6.35
2023-06-21T16:35:53.715Z,7.90
2023-06-21T16:38:44.755Z,7.38
2023-06-21T16:41:42.909Z,8.52
2023-06-21T16:47:01.778Z,8.75
2023-06-21T16:54:03.288Z,6.38
2023-06-21T16:56:43.444Z,7.25
2023-06-21T16:59:30.145Z,8.10
2023-06-21T17:02:23.188Z,9.20
2023-06-21T17:05:12.295Z,9.50
2023-06-21T17:07:48.700Z,12.65
2023-06-21T17:10:33.645Z,10.57
2023-06-21T17:13:42.723Z,11.25
2023-06-21T17:19:15.922Z,9.75
2023-06-21T17:21:43.416Z,15.35
2023-06-21T17:24:10.926Z,11.48
2023-06-21T17:26:38.486Z,9.10
2023-06-21T17:29:06.010Z,9.18
2023-06-21T17:31:33.596Z,8.55
2023-06-21T17:34:01.156Z,11.77
2023-06-21T17:36:28.622Z,6.40
2023-06-21T17:38:56.124Z,12.32
2023-06-21T17:41:23.680Z,11.65
2023-06-21T17:43:51.236Z,8.75
2023-06-21T17:46:18.703Z,10.68
2023-06-21T17:48:46.286Z,8.85
2023-06-21T17:51:14.323Z,13.10
2023-06-21T17:53:41.887Z,11.38
2023-06-21T17:56:09.413Z,14.75
2023-06-21T17:58:36.963Z,11.98
2023-06-21T18:01:04.421Z,8.70
2023-06-21T18:03:32.033Z,9.32
2023-06-21T18:06:00.349Z,10.95
2023-06-21T18:08:29.392Z,13.88
2023-06-21T18:10:58.088Z,13.18
2023-06-21T18:13:25.803Z,10.45
2023-06-21T18:15:54.820Z,11.55
2023-06-21T18:18:24.991Z,8.90
2023-06-21T18:23:20.331Z,7.93
2023-06-21T18:25:47.831Z,10.68
2023-06-21T18:28:15.350Z,11.65
2023-06-21T18:30:43.579Z,9.88
2023-06-21T18:33:11.320Z,12.13
2023-06-21T18:35:41.106Z,14.32
2023-06-21T18:38:11.805Z,10.10
2023-06-21T18:40:41.581Z,10.60
2023-06-21T18:43:09.127Z,9.77
2023-06-21T18:45:37.271Z,10.60
2023-06-21T18:48:04.948Z,10.27
2023-06-21T18:50:32.906Z,12.00
2023-06-21T18:53:01.797Z,15.65
2023-06-21T18:55:29.758Z,13.00
2023-06-21T18:57:57.231Z,9.30
2023-06-21T19:00:24.888Z,10.77
2023-06-21T19:02:52.584Z,14.02
2023-06-21T19:05:20.238Z,11.85
2023-06-21T19:07:47.863Z,9.75
2023-06-21T19:10:15.877Z,16.10
2023-06-21T19:12:43.404Z,10.68
2023-06-21T19:15:11.606Z,10.70
2023-06-21T19:17:39.281Z,14.48
2023-06-21T19:20:08.176Z,12.48
2023-06-21T19:22:35.722Z,13.30
2023-06-21T19:25:03.847Z,10.43
2023-06-21T19:27:31.507Z,13.43
2023-06-21T19:29:58.997Z,13.60
2023-06-21T19:32:27.176Z,11.40
2023-06-21T19:34:54.783Z,11.13
2023-06-21T19:37:22.376Z,14.05
2023-06-21T19:39:50.636Z,16.25
2023-06-21T19:42:18.234Z,11.73
2023-06-21T19:44:46.847Z,12.45
2023-06-21T19:47:15.355Z,15.23
2023-06-21T19:49:42.921Z,15.55
2023-06-21T19:52:10.853Z,12.05
2023-06-21T19:54:38.434Z,12.88
2023-06-21T19:57:06.446Z,15.73
2023-06-21T19:59:34.162Z,12.73
2023-06-21T20:02:01.820Z,16.55
2023-06-21T20:04:29.315Z,13.15
2023-06-21T20:06:56.936Z,11.80
2023-06-21T20:09:25.322Z,14.45
2023-06-21T20:11:52.827Z,13.27
2023-06-21T20:14:20.353Z,16.85
2023-06-21T20:16:47.829Z,14.68
2023-06-21T20:19:16.928Z,14.10
2023-06-21T20:21:46.808Z,13.82
2023-06-21T20:24:14.901Z,14.43
2023-06-21T20:26:43.342Z,12.35
2023-06-21T20:29:10.813Z,10.88
2023-06-21T20:31:38.402Z,12.57
2023-06-21T20:34:06.012Z,11.02
2023-06-21T20:36:34.774Z,13.60
2023-06-21T20:39:07.007Z,10.88
2023-06-21T20:41:34.801Z,10.40
2023-06-21T20:44:03.090Z,13.55
2023-06-21T20:46:32.912Z,15.40
2023-06-21T20:49:02.948Z,14.25
2023-06-21T20:51:30.621Z,12.18
2023-06-21T20:53:58.191Z,12.23
2023-06-21T20:56:27.270Z,13.88
2023-06-21T20:58:57.276Z,12.20
2023-06-21T21:01:25.559Z,15.52
2023-06-21T21:03:55.411Z,9.38
2023-06-21T21:06:25.331Z,13.52
2023-06-21T21:08:52.929Z,12.43
2023-06-21T21:11:20.552Z,15.73
2023-06-21T21:13:48.023Z,14.00
2023-06-21T21:16:15.483Z,14.23
2023-06-21T21:18:42.996Z,12.60
2023-06-21T21:21:12.913Z,10.18
2023-06-21T21:23:40.473Z,15.93
2023-06-21T21:26:08.085Z,13.35
2023-06-21T21:28:35.782Z,15.20
2023-06-21T21:31:05.986Z,13.77
2023-06-21T21:36:01.280Z,11.32
2023-06-21T21:38:28.856Z,12.93
2023-06-21T21:40:56.373Z,16.42
2023-06-21T21:43:23.919Z,13.02
2023-06-21T21:45:51.416Z,12.80
2023-06-21T21:48:18.969Z,18.33
2023-06-21T21:50:46.572Z,11.45
2023-06-21T21:53:15.385Z,18.00
2023-06-21T21:55:43.473Z,13.93
2023-06-21T21:58:12.560Z,14.88
2023-06-21T22:00:40.128Z,13.65
2023-06-21T22:03:09.350Z,13.82
2023-06-21T22:05:37.198Z,14.73
2023-06-21T22:08:05.205Z,14.13
2023-06-21T22:10:39.391Z,17.23
2023-06-21T22:13:11.863Z,15.00
2023-06-21T22:15:52.917Z,15.13
2023-06-21T22:18:27.118Z,17.98
2023-06-21T22:21:01.811Z,13.88
2023-06-21T22:23:34.317Z,13.35
2023-06-21T22:26:10.141Z,13.00
2023-06-21T22:28:39.565Z,11.02
2023-06-21T22:31:07.302Z,14.10
2023-06-21T22:33:34.891Z,15.70
2023-06-21T22:36:02.449Z,13.77
2023-06-21T22:38:30.318Z,11.93
2023-06-21T22:40:57.824Z,12.05
2023-06-21T22:43:25.331Z,10.68
2023-06-21T22:45:54.359Z,14.50
2023-06-21T22:48:22.308Z,22.85
2023-06-21T22:50:49.796Z,16.02
2023-06-21T22:53:17.301Z,14.50
2023-06-21T22:55:44.941Z,18.13
2023-06-21T22:58:12.581Z,17.70
2023-06-21T23:00:40.189Z,19.13
2023-06-21T23:03:09.369Z,16.40
2023-06-21T23:05:36.990Z,14.73
2023-06-21T23:08:06.277Z,13.95
2023-06-21T23:10:33.761Z,15.88
